sensor_id;sensor_type;location;lat;lon;timestamp;pressure;altitude;pressure_sealevel;temperature;humidity
32181;BME280;19172;51.504;3.894;2022-07-11T00:00:25;102373.75;;;25.96;100.00
32181;BME280;19172;51.504;3.894;2022-07-11T00:02:53;102367.53;;;25.94;100.00
32181;BME280;19172;51.504;3.894;2022-07-11T00:05:20;102374.47;;;25.77;100.00
32181;BME280;19172;51.504;3.894;2022-07-11T00:07:48;102376.28;;;25.77;100.00
32181;BME280;19172;51.504;3.894;2022-07-11T00:10:16;102371.31;;;25.88;100.00
32181;BME280;19172;51.504;3.894;2022-07-11T00:12:44;102371.97;;;25.71;100.00
32181;BME280;19172;51.504;3.894;2022-07-11T00:15:11;102370.59;;;26.08;100.00
32181;BME280;19172;51.504;3.894;2022-07-11T00:17:39;102369.28;;;26.19;98.04
32181;BME280;19172;51.504;3.894;2022-07-11T00:20:07;102365.72;;;26.17;99.02
32181;BME280;19172;51.504;3.894;2022-07-11T00:22:35;102367.59;;;26.15;98.60
32181;BME280;19172;51.504;3.894;2022-07-11T00:25:03;102355.56;;;25.99;100.00
32181;BME280;19172;51.504;3.894;2022-07-11T00:27:31;102352.84;;;25.99;100.00
32181;BME280;19172;51.504;3.894;2022-07-11T00:29:59;102346.78;;;25.93;100.00
32181;BME280;19172;51.504;3.894;2022-07-11T00:32:26;102358.97;;;26.04;100.00
32181;BME280;19172;51.504;3.894;2022-07-11T00:34:54;102349.94;;;26.04;99.60
32181;BME280;19172;51.504;3.894;2022-07-11T00:37:22;102346.25;;;25.83;100.00
32181;BME280;19172;51.504;3.894;2022-07-11T00:39:50;102342.59;;;26.07;100.00
32181;BME280;19172;51.504;3.894;2022-07-11T00:42:17;102339.22;;;26.01;98.53
32181;BME280;19172;51.504;3.894;2022-07-11T00:44:45;102337.84;;;25.66;100.00
32181;BME280;19172;51.504;3.894;2022-07-11T00:47:13;102338.25;;;25.55;100.00
32181;BME280;19172;51.504;3.894;2022-07-11T00:49:41;102337.28;;;25.56;100.00
32181;BME280;19172;51.504;3.894;2022-07-11T00:52:09;102340.84;;;25.58;100.00
32181;BME280;19172;51.504;3.894;2022-07-11T00:54:38;102338.13;;;25.58;100.00
32181;BME280;19172;51.504;3.894;2022-07-11T00:57:06;102331.72;;;25.35;100.00
32181;BME280;19172;51.504;3.894;2022-07-11T00:59:35;102327.53;;;25.52;100.00
32181;BME280;19172;51.504;3.894;2022-07-11T01:02:03;102326.41;;;25.58;100.00
32181;BME280;19172;51.504;3.894;2022-07-11T01:04:32;102332.41;;;25.66;100.00
32181;BME280;19172;51.504;3.894;2022-07-11T01:06:59;102333.25;;;25.68;100.00
32181;BME280;19172;51.504;3.894;2022-07-11T01:09:27;102332.66;;;25.85;97.69
32181;BME280;19172;51.504;3.894;2022-07-11T01:11:55;102331.00;;;25.56;98.94
32181;BME280;19172;51.504;3.894;2022-07-11T01:14:23;102327.78;;;25.43;100.00
32181;BME280;19172;51.504;3.894;2022-07-11T01:16:51;102324.50;;;25.09;100.00
32181;BME280;19172;51.504;3.894;2022-07-11T01:19:19;102330.00;;;25.07;100.00
32181;BME280;19172;51.504;3.894;2022-07-11T01:21:52;102339.81;;;24.84;100.00
32181;BME280;19172;51.504;3.894;2022-07-11T01:24:22;102335.78;;;24.69;100.00
32181;BME280;19172;51.504;3.894;2022-07-11T01:26:51;102333.94;;;24.42;100.00
32181;BME280;19172;51.504;3.894;2022-07-11T01:29:19;102336.72;;;24.39;100.00
32181;BME280;19172;51.504;3.894;2022-07-11T01:31:47;102339.25;;;24.45;100.00
32181;BME280;19172;51.504;3.894;2022-07-11T01:34:14;102336.03;;;24.32;100.00
32181;BME280;19172;51.504;3.894;2022-07-11T01:36:42;102337.34;;;24.76;100.00
32181;BME280;19172;51.504;3.894;2022-07-11T01:39:10;102334.38;;;24.85;100.00
32181;BME280;19172;51.504;3.894;2022-07-11T01:41:38;102337.69;;;24.93;100.00
32181;BME280;19172;51.504;3.894;2022-07-11T01:44:05;102337.91;;;25.13;100.00
32181;BME280;19172;51.504;3.894;2022-07-11T01:46:34;102334.44;;;25.08;100.00
32181;BME280;19172;51.504;3.894;2022-07-11T01:49:02;102332.81;;;25.04;100.00
32181;BME280;19172;51.504;3.894;2022-07-11T01:51:29;102342.31;;;24.62;100.00
32181;BME280;19172;51.504;3.894;2022-07-11T01:53:57;102342.25;;;24.36;100.00
32181;BME280;19172;51.504;3.894;2022-07-11T01:56:25;102335.06;;;24.35;100.00
32181;BME280;19172;51.504;3.894;2022-07-11T01:58:59;102339.53;;;24.63;100.00
32181;BME280;19172;51.504;3.894;2022-07-11T02:01:27;102340.91;;;24.76;100.00
32181;BME280;19172;51.504;3.894;2022-07-11T02:03:55;102339.09;;;24.77;100.00
32181;BME280;19172;51.504;3.894;2022-07-11T02:06:23;102343.00;;;24.41;100.00
32181;BME280;19172;51.504;3.894;2022-07-11T02:08:51;102332.19;;;24.68;100.00
32181;BME280;19172;51.504;3.894;2022-07-11T02:11:18;102333.09;;;24.67;100.00
32181;BME280;19172;51.504;3.894;2022-07-11T02:13:46;102331.25;;;24.97;100.00
32181;BME280;19172;51.504;3.894;2022-07-11T02:16:14;102341.41;;;24.89;100.00
32181;BME280;19172;51.504;3.894;2022-07-11T02:18:42;102332.38;;;24.90;100.00
32181;BME280;19172;51.504;3.894;2022-07-11T02:21:10;102331.81;;;25.07;100.00
32181;BME280;19172;51.504;3.894;2022-07-11T02:23:40;102334.53;;;25.32;100.00
32181;BME280;19172;51.504;3.894;2022-07-11T02:26:08;102332.88;;;25.27;100.00
32181;BME280;19172;51.504;3.894;2022-07-11T02:28:36;102333.16;;;24.94;100.00
32181;BME280;19172;51.504;3.894;2022-07-11T02:31:04;102331.94;;;24.76;100.00
32181;BME280;19172;51.504;3.894;2022-07-11T02:33:32;102326.97;;;24.90;100.00
32181;BME280;19172;51.504;3.894;2022-07-11T02:36:00;102325.50;;;25.06;100.00
32181;BME280;19172;51.504;3.894;2022-07-11T02:38:28;102322.47;;;24.89;100.00
32181;BME280;19172;51.504;3.894;2022-07-11T02:40:55;102324.00;;;24.70;100.00
32181;BME280;19172;51.504;3.894;2022-07-11T02:43:23;102318.31;;;24.22;100.00
32181;BME280;19172;51.504;3.894;2022-07-11T02:45:51;102321.00;;;24.79;100.00
32181;BME280;19172;51.504;3.894;2022-07-11T02:48:19;102323.09;;;24.43;100.00
32181;BME280;19172;51.504;3.894;2022-07-11T02:50:47;102319.88;;;24.58;100.00
32181;BME280;19172;51.504;3.894;2022-07-11T02:53:15;102320.44;;;24.69;100.00
32181;BME280;19172;51.504;3.894;2022-07-11T02:55:43;102317.56;;;24.74;100.00
32181;BME280;19172;51.504;3.894;2022-07-11T02:58:11;102319.56;;;24.67;100.00
32181;BME280;19172;51.504;3.894;2022-07-11T03:00:39;102328.16;;;24.82;100.00
32181;BME280;19172;51.504;3.894;2022-07-11T03:03:06;102319.41;;;25.00;100.00
32181;BME280;19172;51.504;3.894;2022-07-11T03:05:34;102321.88;;;25.07;100.00
32181;BME280;19172;51.504;3.894;2022-07-11T03:08:02;102317.34;;;25.08;100.00
32181;BME280;19172;51.504;3.894;2022-07-11T03:10:30;102326.91;;;25.18;100.00
32181;BME280;19172;51.504;3.894;2022-07-11T03:12:58;102316.69;;;25.01;100.00
32181;BME280;19172;51.504;3.894;2022-07-11T03:15:25;102322.31;;;24.95;100.00
32181;BME280;19172;51.504;3.894;2022-07-11T03:17:53;102326.66;;;24.99;100.00
32181;BME280;19172;51.504;3.894;2022-07-11T03:20:21;102322.91;;;25.03;100.00
32181;BME280;19172;51.504;3.894;2022-07-11T03:22:49;102320.31;;;25.00;100.00
32181;BME280;19172;51.504;3.894;2022-07-11T03:25:17;102315.97;;;25.21;100.00
32181;BME280;19172;51.504;3.894;2022-07-11T03:27:45;102320.84;;;24.85;100.00
32181;BME280;19172;51.504;3.894;2022-07-11T03:30:13;102321.69;;;25.12;100.00
32181;BME280;19172;51.504;3.894;2022-07-11T03:32:42;102319.38;;;25.01;100.00
32181;BME280;19172;51.504;3.894;2022-07-11T03:35:10;102325.25;;;24.60;100.00
32181;BME280;19172;51.504;3.894;2022-07-11T03:37:56;102322.97;;;24.74;100.00
32181;BME280;19172;51.504;3.894;2022-07-11T03:40:24;102322.22;;;24.41;100.00
32181;BME280;19172;51.504;3.894;2022-07-11T03:42:51;102325.72;;;24.45;100.00
32181;BME280;19172;51.504;3.894;2022-07-11T03:45:19;102336.69;;;24.09;100.00
32181;BME280;19172;51.504;3.894;2022-07-11T03:47:47;102329.94;;;24.26;100.00
32181;BME280;19172;51.504;3.894;2022-07-11T03:50:16;102324.34;;;24.02;100.00
32181;BME280;19172;51.504;3.894;2022-07-11T03:52:44;102325.63;;;23.89;100.00
32181;BME280;19172;51.504;3.894;2022-07-11T03:55:12;102322.63;;;24.29;100.00
32181;BME280;19172;51.504;3.894;2022-07-11T03:57:40;102322.69;;;24.28;100.00
32181;BME280;19172;51.504;3.894;2022-07-11T04:00:08;102315.19;;;24.36;100.00
32181;BME280;19172;51.504;3.894;2022-07-11T04:02:37;102318.16;;;24.56;100.00
32181;BME280;19172;51.504;3.894;2022-07-11T04:05:05;102317.75;;;24.68;100.00
32181;BME280;19172;51.504;3.894;2022-07-11T04:07:33;102316.59;;;24.49;100.00
32181;BME280;19172;51.504;3.894;2022-07-11T04:10:01;102327.09;;;24.58;100.00
32181;BME280;19172;51.504;3.894;2022-07-11T04:12:29;102321.69;;;24.58;100.00
32181;BME280;19172;51.504;3.894;2022-07-11T04:14:57;102322.81;;;24.79;100.00
32181;BME280;19172;51.504;3.894;2022-07-11T04:17:24;102320.81;;;24.30;100.00
32181;BME280;19172;51.504;3.894;2022-07-11T04:19:54;102315.31;;;24.33;100.00
32181;BME280;19172;51.504;3.894;2022-07-11T04:22:22;102312.00;;;24.51;100.00
32181;BME280;19172;51.504;3.894;2022-07-11T04:24:50;102311.47;;;24.40;100.00
32181;BME280;19172;51.504;3.894;2022-07-11T04:27:18;102312.25;;;24.43;100.00
32181;BME280;19172;51.504;3.894;2022-07-11T04:29:48;102315.28;;;24.60;100.00
32181;BME280;19172;51.504;3.894;2022-07-11T04:32:16;102312.59;;;24.33;100.00
32181;BME280;19172;51.504;3.894;2022-07-11T04:34:44;102314.28;;;24.37;100.00
32181;BME280;19172;51.504;3.894;2022-07-11T04:37:12;102319.84;;;24.60;100.00
32181;BME280;19172;51.504;3.894;2022-07-11T04:39:40;102322.28;;;24.67;100.00
32181;BME280;19172;51.504;3.894;2022-07-11T04:42:07;102327.13;;;24.29;100.00
32181;BME280;19172;51.504;3.894;2022-07-11T04:44:35;102321.56;;;24.62;100.00
32181;BME280;19172;51.504;3.894;2022-07-11T04:47:03;102329.50;;;24.39;100.00
32181;BME280;19172;51.504;3.894;2022-07-11T04:49:31;102333.53;;;24.54;100.00
32181;BME280;19172;51.504;3.894;2022-07-11T04:51:59;102332.06;;;24.99;100.00
32181;BME280;19172;51.504;3.894;2022-07-11T04:54:29;102333.09;;;24.40;100.00
32181;BME280;19172;51.504;3.894;2022-07-11T04:56:57;102338.50;;;24.40;100.00
32181;BME280;19172;51.504;3.894;2022-07-11T04:59:25;102333.78;;;25.02;100.00
32181;BME280;19172;51.504;3.894;2022-07-11T05:01:54;102333.50;;;25.36;100.00
32181;BME280;19172;51.504;3.894;2022-07-11T05:04:22;102342.34;;;25.41;100.00
32181;BME280;19172;51.504;3.894;2022-07-11T05:06:50;102338.69;;;25.91;100.00
32181;BME280;19172;51.504;3.894;2022-07-11T05:09:19;102347.59;;;26.19;100.00
32181;BME280;19172;51.504;3.894;2022-07-11T05:11:47;102339.00;;;26.75;100.00
32181;BME280;19172;51.504;3.894;2022-07-11T05:14:15;102341.09;;;27.12;100.00
32181;BME280;19172;51.504;3.894;2022-07-11T05:16:43;102343.16;;;27.67;98.30
32181;BME280;19172;51.504;3.894;2022-07-11T05:19:11;102345.63;;;27.31;94.36
32181;BME280;19172;51.504;3.894;2022-07-11T05:21:38;102342.06;;;27.92;93.71
32181;BME280;19172;51.504;3.894;2022-07-11T05:24:06;102339.31;;;28.12;95.03
32181;BME280;19172;51.504;3.894;2022-07-11T05:26:34;102337.53;;;27.52;89.90
32181;BME280;19172;51.504;3.894;2022-07-11T05:29:02;102335.75;;;27.51;93.90
32181;BME280;19172;51.504;3.894;2022-07-11T05:31:29;102342.88;;;27.33;95.60
32181;BME280;19172;51.504;3.894;2022-07-11T05:34:00;102340.25;;;27.10;96.79
32181;BME280;19172;51.504;3.894;2022-07-11T05:36:28;102342.13;;;27.29;96.38
32181;BME280;19172;51.504;3.894;2022-07-11T05:38:57;102342.19;;;27.28;96.72
32181;BME280;19172;51.504;3.894;2022-07-11T05:41:24;102340.91;;;27.77;98.00
32181;BME280;19172;51.504;3.894;2022-07-11T05:43:52;102344.19;;;28.43;92.79
32181;BME280;19172;51.504;3.894;2022-07-11T05:46:20;102347.13;;;28.19;88.60
32181;BME280;19172;51.504;3.894;2022-07-11T05:48:48;102347.84;;;28.42;88.15
32181;BME280;19172;51.504;3.894;2022-07-11T05:51:21;102348.03;;;28.93;87.10
32181;BME280;19172;51.504;3.894;2022-07-11T05:53:49;102363.00;;;28.28;81.99
32181;BME280;19172;51.504;3.894;2022-07-11T05:56:17;102359.16;;;27.94;87.28
32181;BME280;19172;51.504;3.894;2022-07-11T05:58:44;102361.16;;;28.48;86.54
32181;BME280;19172;51.504;3.894;2022-07-11T06:01:12;102361.56;;;28.01;87.38
32181;BME280;19172;51.504;3.894;2022-07-11T06:03:40;102364.06;;;28.06;89.11
32181;BME280;19172;51.504;3.894;2022-07-11T06:06:08;102365.22;;;28.76;86.06
32181;BME280;19172;51.504;3.894;2022-07-11T06:08:37;102365.78;;;29.19;81.99
32181;BME280;19172;51.504;3.894;2022-07-11T06:11:13;102367.28;;;28.71;80.23
32181;BME280;19172;51.504;3.894;2022-07-11T06:13:42;102379.31;;;28.47;82.27
32181;BME280;19172;51.504;3.894;2022-07-11T06:16:12;102378.72;;;27.63;85.24
32181;BME280;19172;51.504;3.894;2022-07-11T06:18:40;102370.38;;;27.86;90.91
32181;BME280;19172;51.504;3.894;2022-07-11T06:21:09;102360.34;;;27.88;86.65
32181;BME280;19172;51.504;3.894;2022-07-11T06:23:36;102365.28;;;27.60;90.71
32181;BME280;19172;51.504;3.894;2022-07-11T06:26:04;102369.44;;;27.05;89.14
32181;BME280;19172;51.504;3.894;2022-07-11T06:28:32;102366.09;;;26.98;92.53
32181;BME280;19172;51.504;3.894;2022-07-11T06:31:00;102357.69;;;27.86;91.53
32181;BME280;19172;51.504;3.894;2022-07-11T06:33:29;102352.53;;;28.94;82.63
32181;BME280;19172;51.504;3.894;2022-07-11T06:35:57;102344.47;;;29.61;77.16
32181;BME280;19172;51.504;3.894;2022-07-11T06:38:24;102352.00;;;29.90;71.97
32181;BME280;19172;51.504;3.894;2022-07-11T06:40:52;102347.56;;;30.05;71.50
32181;BME280;19172;51.504;3.894;2022-07-11T06:43:21;102339.47;;;30.35;70.32
32181;BME280;19172;51.504;3.894;2022-07-11T06:45:49;102347.94;;;29.30;67.25
32181;BME280;19172;51.504;3.894;2022-07-11T06:48:17;102341.63;;;28.94;73.62
32181;BME280;19172;51.504;3.894;2022-07-11T06:50:45;102351.28;;;28.64;75.53
32181;BME280;19172;51.504;3.894;2022-07-11T06:53:13;102345.28;;;28.20;81.32
32181;BME280;19172;51.504;3.894;2022-07-11T06:55:41;102333.16;;;28.46;81.22
32181;BME280;19172;51.504;3.894;2022-07-11T06:58:09;102329.38;;;29.88;77.87
32181;BME280;19172;51.504;3.894;2022-07-11T07:00:52;102327.72;;;29.86;69.83
32181;BME280;19172;51.504;3.894;2022-07-11T07:03:20;102341.59;;;30.14;69.68
32181;BME280;19172;51.504;3.894;2022-07-11T07:05:48;102351.34;;;27.86;74.88
32181;BME280;19172;51.504;3.894;2022-07-11T07:08:15;102349.78;;;28.01;76.24
32181;BME280;19172;51.504;3.894;2022-07-11T07:10:43;102340.06;;;29.59;77.16
32181;BME280;19172;51.504;3.894;2022-07-11T07:13:11;102356.56;;;29.21;73.47
32181;BME280;19172;51.504;3.894;2022-07-11T07:15:39;102349.06;;;29.61;74.35
32181;BME280;19172;51.504;3.894;2022-07-11T07:18:06;102354.75;;;28.49;75.73
32181;BME280;19172;51.504;3.894;2022-07-11T07:20:34;102357.34;;;29.75;73.48
32181;BME280;19172;51.504;3.894;2022-07-11T07:23:02;102355.91;;;30.02;70.85
32181;BME280;19172;51.504;3.894;2022-07-11T07:25:30;102356.81;;;29.68;70.69
32181;BME280;19172;51.504;3.894;2022-07-11T07:27:57;102362.91;;;29.56;70.35
32181;BME280;19172;51.504;3.894;2022-07-11T07:30:25;102362.97;;;29.72;70.46
32181;BME280;19172;51.504;3.894;2022-07-11T07:32:53;102364.09;;;29.16;70.31
32181;BME280;19172;51.504;3.894;2022-07-11T07:35:21;102358.41;;;29.72;71.03
32181;BME280;19172;51.504;3.894;2022-07-11T07:37:48;102361.50;;;29.83;71.35
32181;BME280;19172;51.504;3.894;2022-07-11T07:40:16;102366.75;;;28.26;71.72
32181;BME280;19172;51.504;3.894;2022-07-11T07:42:44;102369.19;;;28.32;75.77
32181;BME280;19172;51.504;3.894;2022-07-11T07:45:12;102357.97;;;28.94;76.33
32181;BME280;19172;51.504;3.894;2022-07-11T07:47:40;102366.31;;;28.72;75.76
32181;BME280;19172;51.504;3.894;2022-07-11T07:50:09;102365.47;;;28.89;74.78
32181;BME280;19172;51.504;3.894;2022-07-11T07:52:36;102366.75;;;28.82;80.33
32181;BME280;19172;51.504;3.894;2022-07-11T07:55:05;102371.03;;;28.69;76.00
32181;BME280;19172;51.504;3.894;2022-07-11T07:57:33;102372.66;;;28.73;77.73
32181;BME280;19172;51.504;3.894;2022-07-11T08:00:03;102369.91;;;28.35;77.56
32181;BME280;19172;51.504;3.894;2022-07-11T08:02:50;102373.13;;;28.25;79.82
32181;BME280;19172;51.504;3.894;2022-07-11T08:05:19;102361.53;;;28.59;78.34
32181;BME280;19172;51.504;3.894;2022-07-11T08:07:47;102362.59;;;29.28;78.54
32181;BME280;19172;51.504;3.894;2022-07-11T08:10:15;102354.16;;;29.15;77.21
32181;BME280;19172;51.504;3.894;2022-07-11T08:12:42;102363.91;;;29.02;76.27
32181;BME280;19172;51.504;3.894;2022-07-11T08:15:10;102368.66;;;28.24;79.04
32181;BME280;19172;51.504;3.894;2022-07-11T08:17:38;102356.44;;;29.24;78.25
32181;BME280;19172;51.504;3.894;2022-07-11T08:20:07;102360.38;;;29.00;74.22
32181;BME280;19172;51.504;3.894;2022-07-11T08:22:35;102360.34;;;29.19;73.21
32181;BME280;19172;51.504;3.894;2022-07-11T08:25:03;102368.84;;;27.80;75.91
32181;BME280;19172;51.504;3.894;2022-07-11T08:27:31;102364.19;;;28.42;78.46
32181;BME280;19172;51.504;3.894;2022-07-11T08:30:08;102368.72;;;28.97;78.67
32181;BME280;19172;51.504;3.894;2022-07-11T08:32:40;102364.91;;;28.08;76.81
32181;BME280;19172;51.504;3.894;2022-07-11T08:35:10;102366.28;;;28.91;75.93
32181;BME280;19172;51.504;3.894;2022-07-11T08:37:44;102366.56;;;28.68;75.35
32181;BME280;19172;51.504;3.894;2022-07-11T08:40:12;102364.84;;;29.88;74.78
32181;BME280;19172;51.504;3.894;2022-07-11T08:42:42;102356.09;;;29.65;71.99
32181;BME280;19172;51.504;3.894;2022-07-11T08:45:12;102357.94;;;29.13;73.28
32181;BME280;19172;51.504;3.894;2022-07-11T08:47:42;102359.38;;;29.71;73.26
32181;BME280;19172;51.504;3.894;2022-07-11T08:50:11;102356.41;;;29.93;70.03
32181;BME280;19172;51.504;3.894;2022-07-11T08:52:40;102359.31;;;29.73;69.87
32181;BME280;19172;51.504;3.894;2022-07-11T08:55:08;102356.47;;;29.74;71.07
32181;BME280;19172;51.504;3.894;2022-07-11T08:57:37;102359.59;;;30.01;70.90
32181;BME280;19172;51.504;3.894;2022-07-11T09:00:08;102358.31;;;30.24;68.29
32181;BME280;19172;51.504;3.894;2022-07-11T09:02:36;102353.84;;;29.73;69.16
32181;BME280;19172;51.504;3.894;2022-07-11T09:05:09;102361.03;;;29.05;69.47
32181;BME280;19172;51.504;3.894;2022-07-11T09:07:48;102350.91;;;30.10;71.36
32181;BME280;19172;51.504;3.894;2022-07-11T09:10:17;102353.69;;;30.57;68.60
32181;BME280;19172;51.504;3.894;2022-07-11T09:13:08;102356.25;;;29.96;69.96
32181;BME280;19172;51.504;3.894;2022-07-11T09:15:44;102354.22;;;30.00;66.27
32181;BME280;19172;51.504;3.894;2022-07-11T09:18:39;102357.44;;;30.39;64.31
32181;BME280;19172;51.504;3.894;2022-07-11T09:21:12;102363.06;;;30.20;64.03
32181;BME280;19172;51.504;3.894;2022-07-11T09:24:02;102360.53;;;30.33;64.24
32181;BME280;19172;51.504;3.894;2022-07-11T09:26:50;102357.22;;;30.43;64.05
32181;BME280;19172;51.504;3.894;2022-07-11T09:29:22;102367.31;;;29.76;64.71
32181;BME280;19172;51.504;3.894;2022-07-11T09:31:53;102363.22;;;30.50;63.97
32181;BME280;19172;51.504;3.894;2022-07-11T09:34:22;102367.03;;;30.15;63.54
32181;BME280;19172;51.504;3.894;2022-07-11T09:36:56;102373.91;;;29.89;61.45
32181;BME280;19172;51.504;3.894;2022-07-11T09:39:26;102368.09;;;30.28;63.68
32181;BME280;19172;51.504;3.894;2022-07-11T09:41:55;102370.53;;;30.17;63.43
32181;BME280;19172;51.504;3.894;2022-07-11T09:44:29;102366.09;;;29.13;66.33
32181;BME280;19172;51.504;3.894;2022-07-11T09:47:08;102357.06;;;29.47;67.88
32181;BME280;19172;51.504;3.894;2022-07-11T09:49:39;102358.19;;;29.60;68.64
32181;BME280;19172;51.504;3.894;2022-07-11T09:52:12;102359.38;;;29.71;66.37
32181;BME280;19172;51.504;3.894;2022-07-11T09:54:53;102358.81;;;29.82;67.03
32181;BME280;19172;51.504;3.894;2022-07-11T09:57:29;102366.75;;;29.69;65.97
32181;BME280;19172;51.504;3.894;2022-07-11T09:59:57;102363.09;;;29.70;66.00
32181;BME280;19172;51.504;3.894;2022-07-11T10:02:26;102356.94;;;30.00;65.87
32181;BME280;19172;51.504;3.894;2022-07-11T10:04:54;102361.63;;;30.13;66.74
32181;BME280;19172;51.504;3.894;2022-07-11T10:07:22;102353.25;;;30.65;65.07
32181;BME280;19172;51.504;3.894;2022-07-11T10:09:49;102364.72;;;30.56;64.84
32181;BME280;19172;51.504;3.894;2022-07-11T10:12:17;102355.09;;;30.64;62.99
32181;BME280;19172;51.504;3.894;2022-07-11T10:14:49;102363.00;;;30.37;62.14
32181;BME280;19172;51.504;3.894;2022-07-11T10:17:42;102358.09;;;30.91;60.54
32181;BME280;19172;51.504;3.894;2022-07-11T10:23:40;102352.50;;;30.14;63.29
32181;BME280;19172;51.504;3.894;2022-07-11T10:26:35;102361.72;;;29.96;62.29
32181;BME280;19172;51.504;3.894;2022-07-11T10:29:17;102361.03;;;30.08;62.02
32181;BME280;19172;51.504;3.894;2022-07-11T10:32:08;102367.97;;;30.47;60.42
32181;BME280;19172;51.504;3.894;2022-07-11T10:34:40;102368.06;;;30.45;61.08
32181;BME280;19172;51.504;3.894;2022-07-11T10:37:09;102367.13;;;30.29;59.53
32181;BME280;19172;51.504;3.894;2022-07-11T10:39:37;102370.88;;;30.90;60.85
32181;BME280;19172;51.504;3.894;2022-07-11T10:42:06;102378.25;;;29.93;64.94
32181;BME280;19172;51.504;3.894;2022-07-11T10:44:54;102367.47;;;29.90;64.96
32181;BME280;19172;51.504;3.894;2022-07-11T10:47:34;102360.22;;;30.70;61.85
32181;BME280;19172;51.504;3.894;2022-07-11T10:50:34;102367.94;;;30.93;58.81
32181;BME280;19172;51.504;3.894;2022-07-11T10:53:08;102366.72;;;30.99;58.02
32181;BME280;19172;51.504;3.894;2022-07-11T10:55:44;102368.94;;;30.46;59.33
32181;BME280;19172;51.504;3.894;2022-07-11T10:58:26;102375.00;;;30.51;60.50
32181;BME280;19172;51.504;3.894;2022-07-11T11:01:14;102372.38;;;30.65;59.55
32181;BME280;19172;51.504;3.894;2022-07-11T11:03:44;102372.84;;;30.24;58.55
32181;BME280;19172;51.504;3.894;2022-07-11T11:06:12;102368.75;;;30.80;60.90
32181;BME280;19172;51.504;3.894;2022-07-11T11:08:42;102366.81;;;30.51;59.73
32181;BME280;19172;51.504;3.894;2022-07-11T11:14:16;102363.66;;;30.74;59.81
32181;BME280;19172;51.504;3.894;2022-07-11T11:16:44;102367.25;;;30.90;59.76
32181;BME280;19172;51.504;3.894;2022-07-11T11:22:20;102364.53;;;31.51;55.84
32181;BME280;19172;51.504;3.894;2022-07-11T11:24:51;102371.25;;;31.60;55.54
32181;BME280;19172;51.504;3.894;2022-07-11T11:28:00;102362.41;;;31.40;57.78
32181;BME280;19172;51.504;3.894;2022-07-11T11:30:31;102362.81;;;31.19;56.98
32181;BME280;19172;51.504;3.894;2022-07-11T11:33:00;102363.44;;;31.24;56.77
32181;BME280;19172;51.504;3.894;2022-07-11T11:35:28;102368.06;;;31.37;55.71
32181;BME280;19172;51.504;3.894;2022-07-11T11:37:59;102354.75;;;31.31;57.09
32181;BME280;19172;51.504;3.894;2022-07-11T11:40:28;102364.22;;;30.32;60.45
32181;BME280;19172;51.504;3.894;2022-07-11T11:42:56;102357.16;;;30.12;60.55
32181;BME280;19172;51.504;3.894;2022-07-11T11:45:23;102352.22;;;31.28;59.79
32181;BME280;19172;51.504;3.894;2022-07-11T11:47:51;102346.88;;;31.11;59.78
32181;BME280;19172;51.504;3.894;2022-07-11T11:50:20;102345.50;;;31.64;58.24
32181;BME280;19172;51.504;3.894;2022-07-11T11:52:47;102349.16;;;31.48;56.81
32181;BME280;19172;51.504;3.894;2022-07-11T11:55:17;102340.44;;;31.42;56.30
32181;BME280;19172;51.504;3.894;2022-07-11T11:57:45;102344.31;;;31.24;54.94
32181;BME280;19172;51.504;3.894;2022-07-11T12:00:21;102342.09;;;31.44;54.32
32181;BME280;19172;51.504;3.894;2022-07-11T12:03:02;102340.22;;;31.61;53.76
32181;BME280;19172;51.504;3.894;2022-07-11T12:05:30;102337.09;;;31.67;53.05
32181;BME280;19172;51.504;3.894;2022-07-11T12:07:58;102340.25;;;31.15;53.94
32181;BME280;19172;51.504;3.894;2022-07-11T12:10:26;102332.63;;;31.80;54.57
32181;BME280;19172;51.504;3.894;2022-07-11T12:12:54;102342.66;;;31.51;54.84
32181;BME280;19172;51.504;3.894;2022-07-11T12:17:59;102339.19;;;32.20;52.40
32181;BME280;19172;51.504;3.894;2022-07-11T12:20:35;102332.41;;;32.39;51.21
32181;BME280;19172;51.504;3.894;2022-07-11T12:23:11;102340.88;;;32.22;52.37
32181;BME280;19172;51.504;3.894;2022-07-11T12:25:49;102330.69;;;32.24;51.78
32181;BME280;19172;51.504;3.894;2022-07-11T12:28:17;102334.38;;;31.67;52.45
32181;BME280;19172;51.504;3.894;2022-07-11T12:30:45;102333.78;;;31.32;52.09
32181;BME280;19172;51.504;3.894;2022-07-11T12:33:14;102334.84;;;31.73;52.24
32181;BME280;19172;51.504;3.894;2022-07-11T12:35:59;102338.25;;;31.63;53.35
32181;BME280;19172;51.504;3.894;2022-07-11T12:38:48;102329.50;;;32.00;53.62
32181;BME280;19172;51.504;3.894;2022-07-11T12:41:20;102328.03;;;31.80;54.77
32181;BME280;19172;51.504;3.894;2022-07-11T12:43:50;102323.44;;;31.95;54.68
32181;BME280;19172;51.504;3.894;2022-07-11T12:46:38;102320.03;;;31.77;54.91
32181;BME280;19172;51.504;3.894;2022-07-11T12:49:09;102315.81;;;32.28;55.58
32181;BME280;19172;51.504;3.894;2022-07-11T12:51:40;102311.84;;;32.06;55.22
32181;BME280;19172;51.504;3.894;2022-07-11T12:54:10;102317.97;;;31.37;55.04
32181;BME280;19172;51.504;3.894;2022-07-11T12:56:39;102314.34;;;31.80;56.78
32181;BME280;19172;51.504;3.894;2022-07-11T12:59:18;102312.59;;;31.93;55.27
32181;BME280;19172;51.504;3.894;2022-07-11T13:07:32;102313.97;;;30.67;55.31
32181;BME280;19172;51.504;3.894;2022-07-11T13:10:24;102309.50;;;31.41;55.60
32181;BME280;19172;51.504;3.894;2022-07-11T13:12:54;102316.00;;;31.69;54.88
32181;BME280;19172;51.504;3.894;2022-07-11T13:15:22;102304.34;;;31.21;56.39
32181;BME280;19172;51.504;3.894;2022-07-11T13:17:54;102312.28;;;30.80;56.39